Faxinal do Soturno, Brazil
Current Conditions -  °F | °C
As of 4:15 PM on Wednesday 28 Jan 2015 (Local Time) from SBSM Reporting Station
Rain Showers Rain Showers  
Wind Chill: 81°   Ceiling: 4000
Heat Index: 86°   Visibility: 1.2mi
Dew Point: 75°   Wind: 6mph
Humidity: 84%   Direction: 230°SW
Pressure: 29.71"   Gusts: NA
Location:  29.57°S, 53.44°W
Report Text: SBSM 281815Z 23005KT 2000 +SHRA SCT023 BKN040 FEW045TCU BKN10027/24 Q1006
Loading
Personal Weather Stations






























Interactive Weather Map New forecast layout! Learn more

10-Day Weather Forecast

Advertisements
Track Severe Weather on mobile